createdAt,value
2023-01-09T00:01:00.248Z,997.2
2023-01-09T00:02:16.074Z,997.2
2023-01-09T00:03:32.265Z,997.2
2023-01-09T00:04:48.824Z,997.2
2023-01-09T00:06:04.645Z,997.1
2023-01-09T00:07:20.205Z,997.2
2023-01-09T00:08:36.393Z,997.2
2023-01-09T00:09:52.227Z,997.2
2023-01-09T00:11:08.787Z,997.2
2023-01-09T00:12:24.595Z,997.2
2023-01-09T00:13:41.151Z,997.1
2023-01-09T00:14:56.968Z,997.2
2023-01-09T00:16:13.156Z,997.1
2023-01-09T00:17:29.711Z,997.1
2023-01-09T00:18:45.895Z,997.1
2023-01-09T00:20:02.074Z,997
2023-01-09T00:21:17.912Z,997.1
2023-01-09T00:22:34.084Z,997.1
2023-01-09T00:23:49.663Z,997.1
2023-01-09T00:25:05.483Z,997.1
2023-01-09T00:26:21.673Z,997.2
2023-01-09T00:27:38.227Z,997.2
2023-01-09T00:28:54.047Z,997.2
2023-01-09T00:30:10.599Z,997.1
2023-01-09T00:31:26.409Z,997.1
2023-01-09T00:32:42.976Z,997.1
2023-01-09T00:33:59.161Z,997
2023-01-09T00:35:15.355Z,997
2023-01-09T00:36:31.174Z,996.9
2023-01-09T00:37:47.717Z,997
2023-01-09T00:39:03.909Z,997
2023-01-09T00:40:18.745Z,996.9
2023-01-09T00:41:35.298Z,996.9
2023-01-09T00:42:51.501Z,996.8
2023-01-09T00:44:07.683Z,996.8
2023-01-09T00:45:23.857Z,996.8
2023-01-09T00:46:40.049Z,996.8
2023-01-09T00:47:55.869Z,996.8
2023-01-09T00:49:12.055Z,996.7
2023-01-09T00:50:28.625Z,996.7
2023-01-09T00:51:44.814Z,996.7
2023-01-09T00:53:00.982Z,996.7
2023-01-09T00:54:16.810Z,996.7
2023-01-09T00:55:32.991Z,996.7
2023-01-09T00:56:48.578Z,996.6
2023-01-09T00:58:04.388Z,996.7
2023-01-09T00:59:20.938Z,996.7
2023-01-09T01:00:37.129Z,996.6
2023-01-09T01:01:53.323Z,996.5
2023-01-09T01:03:09.512Z,996.5
2023-01-09T01:04:25.695Z,996.4
2023-01-09T01:05:41.514Z,996.4
2023-01-09T01:06:58.067Z,996.5
2023-01-09T01:08:14.266Z,996.4
2023-01-09T01:09:30.442Z,996.4
2023-01-09T01:10:46.264Z,996.5
2023-01-09T01:12:02.816Z,996.4
2023-01-09T01:13:18.014Z,996.4
2023-01-09T01:14:33.841Z,996.5
2023-01-09T01:15:50.392Z,996.4
2023-01-09T01:17:06.201Z,996.4
2023-01-09T01:18:22.772Z,996.5
2023-01-09T01:19:38.957Z,996.4
2023-01-09T01:20:55.148Z,996.5
2023-01-09T01:22:11.326Z,996.4
2023-01-09T01:23:27.524Z,996.5
2023-01-09T01:24:43.702Z,996.4
2023-01-09T01:25:59.893Z,996.4
2023-01-09T01:27:16.085Z,996.4
2023-01-09T01:28:32.273Z,996.4
2023-01-09T01:29:47.484Z,996.3
2023-01-09T01:31:03.667Z,996.3
2023-01-09T01:32:19.460Z,996.3
2023-01-09T01:33:35.665Z,996.3
2023-01-09T01:34:51.852Z,996.4
2023-01-09T01:36:08.414Z,996.3
2023-01-09T01:37:24.612Z,996.4
2023-01-09T01:38:40.404Z,996.4
2023-01-09T01:39:56.972Z,996.4
2023-01-09T01:41:12.782Z,996.4
2023-01-09T01:42:28.969Z,996.3
2023-01-09T01:43:45.531Z,996.3
2023-01-09T01:45:01.727Z,996.3
2023-01-09T01:46:16.927Z,996.3
2023-01-09T01:47:33.119Z,996.3
2023-01-09T01:48:49.316Z,996.3
2023-01-09T01:50:05.487Z,996.3
2023-01-09T01:51:21.684Z,996.2
2023-01-09T01:52:37.869Z,996.2
2023-01-09T01:53:54.049Z,996.2
2023-01-09T01:55:10.252Z,996.1
2023-01-09T01:56:26.432Z,996
2023-01-09T01:57:42.236Z,996.1
2023-01-09T01:58:58.416Z,996
2023-01-09T02:00:15.002Z,996
2023-01-09T02:01:31.187Z,996
2023-01-09T02:02:46.378Z,996
2023-01-09T02:04:02.568Z,996
2023-01-09T02:05:18.765Z,996
2023-01-09T02:06:34.949Z,996
2023-01-09T02:07:51.135Z,995.9
2023-01-09T02:09:07.328Z,996
2023-01-09T02:10:23.520Z,995.9
2023-01-09T02:11:39.704Z,995.9
2023-01-09T02:12:55.890Z,996
2023-01-09T02:14:12.075Z,996
2023-01-09T02:15:28.256Z,996
2023-01-09T02:16:44.447Z,996
2023-01-09T02:18:00.639Z,996
2023-01-09T02:19:15.455Z,996
2023-01-09T02:20:32.033Z,996
2023-01-09T02:21:48.216Z,996
2023-01-09T02:23:04.002Z,995.9
2023-01-09T02:24:20.593Z,996
2023-01-09T02:25:35.796Z,996.1
2023-01-09T02:26:51.981Z,996
2023-01-09T02:28:08.168Z,996
2023-01-09T02:29:24.368Z,996
2023-01-09T02:30:40.545Z,996
2023-01-09T02:31:56.732Z,996
2023-01-09T02:33:12.931Z,996
2023-01-09T02:34:29.112Z,996
2023-01-09T02:35:44.898Z,996
2023-01-09T02:37:01.083Z,996
2023-01-09T02:38:17.672Z,996
2023-01-09T02:39:33.869Z,996
2023-01-09T02:40:50.042Z,996
2023-01-09T02:42:05.251Z,995.9
2023-01-09T02:43:21.439Z,995.9
2023-01-09T02:44:37.639Z,996
2023-01-09T02:45:53.823Z,996
2023-01-09T02:47:10.010Z,996
2023-01-09T02:48:26.187Z,996
2023-01-09T02:49:41.972Z,996
2023-01-09T02:50:58.562Z,996
2023-01-09T02:52:14.745Z,996
2023-01-09T02:53:30.944Z,996.1
2023-01-09T02:54:46.723Z,996
2023-01-09T02:56:02.924Z,996
2023-01-09T02:57:19.496Z,996
2023-01-09T02:58:34.718Z,996
2023-01-09T02:59:50.898Z,996
2023-01-09T03:01:06.687Z,995.9
2023-01-09T03:02:22.877Z,995.9
2023-01-09T03:03:39.064Z,995.9
2023-01-09T03:04:55.244Z,995.8
2023-01-09T03:06:11.833Z,995.8
2023-01-09T03:07:28.033Z,995.8
2023-01-09T03:08:44.201Z,995.8
2023-01-09T03:10:00.390Z,995.8
2023-01-09T03:11:16.589Z,995.8
2023-01-09T03:12:32.770Z,995.7
2023-01-09T03:13:48.976Z,995.7
2023-01-09T03:15:04.158Z,995.8
2023-01-09T03:16:20.342Z,995.7
2023-01-09T03:17:36.126Z,995.7
2023-01-09T03:18:52.716Z,995.6
2023-01-09T03:20:08.497Z,995.7
2023-01-09T03:21:25.097Z,995.6
2023-01-09T03:22:40.874Z,995.6
2023-01-09T03:23:57.480Z,995.6
2023-01-09T03:25:13.661Z,995.6
2023-01-09T03:26:29.847Z,995.5
2023-01-09T03:27:45.623Z,995.5
2023-01-09T03:29:01.817Z,995.5
2023-01-09T03:30:18.407Z,995.6
2023-01-09T03:31:33.616Z,995.5
2023-01-09T03:32:49.807Z,995.6
2023-01-09T03:34:05.575Z,995.5
2023-01-09T03:35:22.173Z,995.5
2023-01-09T03:36:38.370Z,995.6
2023-01-09T03:37:54.561Z,995.5
2023-01-09T03:39:10.737Z,995.5
2023-01-09T03:40:26.518Z,995.5
2023-01-09T03:41:43.109Z,995.4
2023-01-09T03:42:59.303Z,995.4
2023-01-09T03:44:15.501Z,995.3
2023-01-09T03:45:31.670Z,995.3
2023-01-09T03:46:47.450Z,995.3
2023-01-09T03:48:03.080Z,995.3
2023-01-09T03:49:18.842Z,995.3
2023-01-09T03:50:35.437Z,995.3
2023-01-09T03:51:51.219Z,995.3
2023-01-09T03:53:07.830Z,995.3
2023-01-09T03:54:24.004Z,995.2
2023-01-09T03:55:40.193Z,995.2
2023-01-09T03:56:56.378Z,995.2
2023-01-09T03:58:12.567Z,995.3
2023-01-09T03:59:28.758Z,995.3
2023-01-09T04:00:44.943Z,995.3
2023-01-09T04:02:01.142Z,995.3
2023-01-09T04:03:17.325Z,995.2
2023-01-09T04:04:32.113Z,995.2
2023-01-09T04:05:48.303Z,995.2
2023-01-09T04:07:04.901Z,995.3
2023-01-09T04:08:21.090Z,995.3
2023-01-09T04:09:37.276Z,995.2
2023-01-09T04:10:53.456Z,995.2
2023-01-09T04:12:09.645Z,995.2
2023-01-09T04:13:25.841Z,995.2
2023-01-09T04:14:41.606Z,995.2
2023-01-09T04:15:58.222Z,995.2
2023-01-09T04:17:13.987Z,995.1
2023-01-09T04:18:30.595Z,995.1
2023-01-09T04:19:46.774Z,995.1
2023-01-09T04:21:01.977Z,995.1
2023-01-09T04:22:18.167Z,995.1
2023-01-09T04:23:34.352Z,995.2
2023-01-09T04:24:50.550Z,995.2
2023-01-09T04:26:06.731Z,995.1
2023-01-09T04:27:22.925Z,995.2
2023-01-09T04:28:38.679Z,995.2
2023-01-09T04:29:54.867Z,995.1
2023-01-09T04:31:11.482Z,995.2
2023-01-09T04:32:27.666Z,995.1
2023-01-09T04:33:43.847Z,995.1
2023-01-09T04:35:00.037Z,995.1
2023-01-09T04:36:16.239Z,995
2023-01-09T04:37:31.434Z,995
2023-01-09T04:38:47.622Z,995.1
2023-01-09T04:40:03.799Z,995
2023-01-09T04:41:19.985Z,995
2023-01-09T04:42:35.757Z,994.9
2023-01-09T04:43:51.946Z,995
2023-01-09T04:45:08.565Z,995
2023-01-09T04:46:24.752Z,995
2023-01-09T04:47:40.503Z,995
2023-01-09T04:48:57.112Z,995
2023-01-09T04:50:12.879Z,995
2023-01-09T04:51:29.076Z,994.9
2023-01-09T04:52:45.673Z,994.9
2023-01-09T04:54:00.451Z,994.9
2023-01-09T04:55:16.645Z,994.9
2023-01-09T04:56:33.253Z,994.9
2023-01-09T04:57:49.445Z,994.8
2023-01-09T04:59:05.209Z,994.9
2023-01-09T05:00:21.824Z,994.9
2023-01-09T05:01:38.019Z,994.8
2023-01-09T05:02:54.189Z,994.9
2023-01-09T05:04:10.383Z,994.8
2023-01-09T05:05:26.147Z,994.9
2023-01-09T05:06:42.339Z,994.9
2023-01-09T05:07:58.513Z,994.8
2023-01-09T05:09:15.131Z,994.9
2023-01-09T05:10:30.338Z,994.8
2023-01-09T05:11:46.102Z,994.8
2023-01-09T05:13:02.708Z,994.8
2023-01-09T05:14:18.891Z,994.8
2023-01-09T05:15:35.079Z,994.8
2023-01-09T05:16:51.275Z,994.8
2023-01-09T05:18:07.474Z,994.8
2023-01-09T05:19:23.661Z,994.8
2023-01-09T05:20:39.835Z,994.8
2023-01-09T05:21:56.026Z,994.7
2023-01-09T05:23:12.209Z,994.7
2023-01-09T05:24:27.974Z,994.7
2023-01-09T05:25:44.593Z,994.7
2023-01-09T05:26:59.793Z,994.7
2023-01-09T05:28:15.553Z,994.8
2023-01-09T05:29:31.725Z,994.7
2023-01-09T05:30:48.350Z,994.8
2023-01-09T05:32:04.548Z,994.8
2023-01-09T05:33:20.295Z,994.8
2023-01-09T05:34:36.927Z,994.8
2023-01-09T05:35:53.111Z,994.7
2023-01-09T05:37:08.863Z,994.8
2023-01-09T05:38:25.477Z,994.8
2023-01-09T05:39:41.222Z,994.8
2023-01-09T05:40:57.417Z,994.8
2023-01-09T05:42:14.034Z,994.8
2023-01-09T05:43:28.803Z,994.8
2023-01-09T05:44:45.004Z,994.7
2023-01-09T05:46:01.189Z,994.8
2023-01-09T05:47:17.809Z,994.7
2023-01-09T05:48:33.989Z,994.7
2023-01-09T05:49:50.172Z,994.7
2023-01-09T05:51:06.368Z,994.6
2023-01-09T05:52:22.117Z,994.7
2023-01-09T05:53:38.747Z,994.6
2023-01-09T05:54:54.935Z,994.6
2023-01-09T05:56:11.121Z,994.7
2023-01-09T05:57:27.311Z,994.6
2023-01-09T05:58:43.051Z,994.6
2023-01-09T05:59:58.257Z,994.6
2023-01-09T06:01:14.889Z,994.5
2023-01-09T06:02:30.626Z,994.6
2023-01-09T06:03:47.251Z,994.6
2023-01-09T06:05:03.441Z,994.5
2023-01-09T06:06:19.632Z,994.5
2023-01-09T06:07:35.831Z,994.5
2023-01-09T06:08:52.002Z,994.6
2023-01-09T06:10:08.194Z,994.6
2023-01-09T06:11:24.375Z,994.6
2023-01-09T06:12:40.122Z,994.6
2023-01-09T06:13:56.762Z,994.5
2023-01-09T06:15:12.510Z,994.6
2023-01-09T06:16:28.146Z,994.5
2023-01-09T06:17:44.333Z,994.5
2023-01-09T06:19:00.523Z,994.5
2023-01-09T06:20:16.709Z,994.5
2023-01-09T06:21:32.901Z,994.5
2023-01-09T06:22:48.636Z,994.5
2023-01-09T06:24:05.269Z,994.5
2023-01-09T06:25:21.007Z,994.5
2023-01-09T06:26:37.646Z,994.4
2023-01-09T06:27:53.835Z,994.4
2023-01-09T06:29:10.017Z,994.4
2023-01-09T06:30:25.766Z,994.4
2023-01-09T06:31:42.408Z,994.4
2023-01-09T06:32:57.598Z,994.3
2023-01-09T06:34:13.794Z,994.4
2023-01-09T06:35:29.539Z,994.4
2023-01-09T06:36:45.708Z,994.4
2023-01-09T06:38:01.901Z,994.4
2023-01-09T06:39:18.547Z,994.3
2023-01-09T06:40:33.297Z,994.3
2023-01-09T06:41:49.932Z,994.3
2023-01-09T06:43:06.121Z,994.3
2023-01-09T06:44:22.322Z,994.2
2023-01-09T06:45:38.060Z,994.2
2023-01-09T06:46:54.683Z,994.2
2023-01-09T06:48:10.884Z,994.2
2023-01-09T06:49:26.612Z,994.2
2023-01-09T06:50:43.255Z,994.2
2023-01-09T06:51:59.436Z,994.2
2023-01-09T06:53:15.166Z,994.1
2023-01-09T06:54:31.803Z,994.2
2023-01-09T06:55:47.993Z,994.2
2023-01-09T06:57:03.214Z,994.3
2023-01-09T06:58:18.943Z,994.2
2023-01-09T06:59:35.118Z,994.1
2023-01-09T07:00:51.307Z,994.2
2023-01-09T07:02:07.951Z,994.2
2023-01-09T07:03:24.158Z,994.2
2023-01-09T07:04:40.341Z,994.1
2023-01-09T07:05:56.064Z,994.1
2023-01-09T07:07:12.716Z,994.1
2023-01-09T07:08:28.450Z,994.1
2023-01-09T07:09:45.083Z,994.1
2023-01-09T07:11:01.282Z,994
2023-01-09T07:12:17.480Z,994
2023-01-09T07:13:32.216Z,994
2023-01-09T07:14:48.413Z,994
2023-01-09T07:16:04.592Z,994
2023-01-09T07:17:21.242Z,994
2023-01-09T07:18:37.440Z,994
2023-01-09T07:19:53.618Z,994
2023-01-09T07:21:09.358Z,994
2023-01-09T07:22:26.003Z,994
2023-01-09T07:23:41.732Z,994.1
2023-01-09T07:24:58.386Z,994
2023-01-09T07:26:14.575Z,994.1
2023-01-09T07:27:30.285Z,994.1
2023-01-09T07:28:46.943Z,994.1
2023-01-09T07:30:02.157Z,994
2023-01-09T07:31:17.873Z,994
2023-01-09T07:32:34.536Z,994.1
2023-01-09T07:33:50.721Z,994
2023-01-09T07:35:06.447Z,994.1
2023-01-09T07:36:22.635Z,994.1
2023-01-09T07:37:38.828Z,994.1
2023-01-09T07:38:55.011Z,994.1
2023-01-09T07:40:11.209Z,994.1
2023-01-09T07:41:27.859Z,994
2023-01-09T07:42:44.042Z,994.1
2023-01-09T07:44:00.230Z,994.1
2023-01-09T07:45:16.416Z,994.1
2023-01-09T07:46:31.624Z,994.2
2023-01-09T07:47:47.356Z,994.1
2023-01-09T07:49:03.534Z,994.1
2023-01-09T07:50:20.179Z,994.1
2023-01-09T07:51:36.381Z,994.2
2023-01-09T07:52:52.099Z,994.1
2023-01-09T07:54:08.755Z,994.2
2023-01-09T07:55:24.950Z,994.2
2023-01-09T07:56:41.142Z,994.2
2023-01-09T07:57:57.314Z,994.3
2023-01-09T07:59:13.517Z,994.3
2023-01-09T08:00:29.700Z,994.3
2023-01-09T08:01:45.421Z,994.3
2023-01-09T08:03:01.095Z,994.3
2023-01-09T08:04:17.294Z,994.3
2023-01-09T08:05:33.464Z,994.4
2023-01-09T08:06:49.658Z,994.4
2023-01-09T08:08:05.845Z,994.4
2023-01-09T08:09:21.571Z,994.4
2023-01-09T08:10:38.237Z,994.4
2023-01-09T08:11:54.429Z,994.4
2023-01-09T08:13:10.617Z,994.4
2023-01-09T08:14:26.789Z,994.4
2023-01-09T08:15:42.990Z,994.4
2023-01-09T08:16:58.704Z,994.4
2023-01-09T08:18:14.894Z,994.4
2023-01-09T08:19:30.571Z,994.5
2023-01-09T08:20:46.768Z,994.5
2023-01-09T08:22:02.469Z,994.4
2023-01-09T08:23:18.665Z,994.5
2023-01-09T08:24:34.847Z,994.5
2023-01-09T08:25:51.525Z,994.4
2023-01-09T08:27:07.709Z,994.4
2023-01-09T08:28:23.900Z,994.4
2023-01-09T08:29:40.082Z,994.4
2023-01-09T08:30:56.276Z,994.4
2023-01-09T08:32:11.989Z,994.5
2023-01-09T08:33:28.645Z,994.4
2023-01-09T08:34:44.849Z,994.3
2023-01-09T08:36:01.147Z,994.4
2023-01-09T08:37:16.866Z,994.4
2023-01-09T08:38:33.526Z,994.5
2023-01-09T08:39:49.239Z,994.5
2023-01-09T08:41:05.907Z,994.5
2023-01-09T08:42:22.095Z,994.5
2023-01-09T08:43:38.278Z,994.5
2023-01-09T08:44:53.995Z,994.5
2023-01-09T08:46:10.668Z,994.5
2023-01-09T08:47:26.369Z,994.4
2023-01-09T08:48:43.049Z,994.5
2023-01-09T08:49:59.234Z,994.5
2023-01-09T08:51:14.941Z,994.6
2023-01-09T08:52:30.619Z,994.5
2023-01-09T08:53:46.809Z,994.7
2023-01-09T08:55:02.518Z,994.6
2023-01-09T08:56:19.200Z,994.7
2023-01-09T08:57:35.385Z,994.7
2023-01-09T08:58:51.574Z,994.7
2023-01-09T09:00:07.763Z,994.7
2023-01-09T09:01:23.944Z,994.8
2023-01-09T09:02:39.000Z,994.7
2023-01-09T09:03:56.000Z,994.7
2023-01-09T09:05:12.521Z,994.7
2023-01-09T09:06:28.700Z,994.7
2023-01-09T09:07:44.893Z,994.7
2023-01-09T09:08:59.620Z,994.7
2023-01-09T09:10:15.819Z,994.7
2023-01-09T09:11:32.489Z,994.7
2023-01-09T09:12:48.669Z,994.6
2023-01-09T09:14:04.863Z,994.7
2023-01-09T09:15:21.047Z,994.7
2023-01-09T09:16:37.240Z,994.6
2023-01-09T09:17:52.955Z,994.6
2023-01-09T09:19:09.615Z,994.7
2023-01-09T09:20:25.805Z,994.6
2023-01-09T09:21:41.518Z,994.6
2023-01-09T09:22:58.190Z,994.6
2023-01-09T09:24:14.361Z,994.7
2023-01-09T09:25:29.099Z,994.7
2023-01-09T09:26:45.768Z,994.7
2023-01-09T09:28:01.953Z,994.7
2023-01-09T09:29:18.139Z,994.7
2023-01-09T09:30:33.856Z,994.7
2023-01-09T09:31:50.518Z,994.8
2023-01-09T09:33:06.232Z,994.8
2023-01-09T09:34:22.897Z,994.8
2023-01-09T09:35:39.102Z,994.8
2023-01-09T09:36:55.285Z,994.8
2023-01-09T09:38:11.480Z,994.8
2023-01-09T09:39:27.655Z,994.8
2023-01-09T09:40:43.360Z,994.8
2023-01-09T09:41:59.048Z,994.8
2023-01-09T09:43:15.240Z,994.9
2023-01-09T09:44:31.428Z,994.9
2023-01-09T09:45:47.629Z,994.9
2023-01-09T09:47:03.811Z,995
2023-01-09T09:48:19.769Z,994.9
2023-01-09T09:49:36.198Z,995
2023-01-09T09:50:52.375Z,994.9
2023-01-09T09:52:08.570Z,994.9
2023-01-09T09:53:24.765Z,995
2023-01-09T09:54:40.955Z,995
2023-01-09T09:55:56.906Z,995
2023-01-09T09:57:13.332Z,995.1
2023-01-09T09:58:28.521Z,995
2023-01-09T09:59:44.727Z,995.1
2023-01-09T10:01:00.920Z,995
2023-01-09T10:02:17.099Z,995
2023-01-09T10:03:33.061Z,994.9
2023-01-09T10:04:49.473Z,995
2023-01-09T10:06:05.438Z,994.9
2023-01-09T10:07:21.858Z,994.9
2023-01-09T10:08:38.047Z,995
2023-01-09T10:09:54.242Z,994.9
2023-01-09T10:11:10.177Z,994.9
2023-01-09T10:12:26.377Z,994.9
2023-01-09T10:13:42.564Z,994.9
2023-01-09T10:14:58.001Z,994.9
2023-01-09T10:16:14.197Z,994.9
2023-01-09T10:17:30.388Z,994.9
2023-01-09T10:18:46.332Z,994.9
2023-01-09T10:20:02.761Z,994.9
2023-01-09T10:21:18.947Z,995
2023-01-09T10:22:35.140Z,995
2023-01-09T10:23:51.334Z,995
2023-01-09T10:25:07.528Z,995.1
2023-01-09T10:26:23.475Z,995.2
2023-01-09T10:27:39.895Z,995.1
2023-01-09T10:28:56.095Z,995.1
2023-01-09T10:30:12.033Z,995.1
2023-01-09T10:31:27.479Z,995.2
2023-01-09T10:32:43.678Z,995.2
2023-01-09T10:33:59.610Z,995.2
2023-01-09T10:35:16.052Z,995.2
2023-01-09T10:36:32.008Z,995.2
2023-01-09T10:37:48.426Z,995.1
2023-01-09T10:39:04.624Z,995.1
2023-01-09T10:40:20.813Z,995.2
2023-01-09T10:41:36.745Z,995.1
2023-01-09T10:42:53.183Z,995.1
2023-01-09T10:44:09.133Z,995.1
2023-01-09T10:45:25.556Z,995.2
2023-01-09T10:46:41.765Z,995.1
2023-01-09T10:47:56.970Z,995.2
2023-01-09T10:49:12.896Z,995.3
2023-01-09T10:50:29.331Z,995.2
2023-01-09T10:51:45.523Z,995.2
2023-01-09T10:53:01.714Z,995.2
2023-01-09T10:54:17.657Z,995.3
2023-01-09T10:55:33.119Z,995.3
2023-01-09T10:56:49.052Z,995.2
2023-01-09T10:58:05.503Z,995.3
2023-01-09T10:59:21.699Z,995.3
2023-01-09T11:00:37.877Z,995.4
2023-01-09T11:01:54.056Z,995.4
2023-01-09T11:03:10.005Z,995.4
2023-01-09T11:04:26.205Z,995.4
2023-01-09T11:05:42.378Z,995.4
2023-01-09T11:06:58.578Z,995.5
2023-01-09T11:08:15.016Z,995.5
2023-01-09T11:09:31.197Z,995.5
2023-01-09T11:10:47.142Z,995.5
2023-01-09T11:12:02.357Z,995.5
2023-01-09T11:13:18.788Z,995.5
2023-01-09T11:14:34.971Z,995.5
2023-01-09T11:15:51.172Z,995.5
2023-01-09T11:17:07.360Z,995.5
2023-01-09T11:18:23.544Z,995.5
2023-01-09T11:19:39.484Z,995.5
2023-01-09T11:20:55.935Z,995.5
2023-01-09T11:22:11.855Z,995.5
2023-01-09T11:23:28.293Z,995.6
2023-01-09T11:24:44.238Z,995.5
2023-01-09T11:26:00.675Z,995.6
2023-01-09T11:27:16.606Z,995.6
2023-01-09T11:28:32.076Z,995.7
2023-01-09T11:29:48.251Z,995.6
2023-01-09T11:31:04.456Z,995.7
2023-01-09T11:32:20.653Z,995.7
2023-01-09T11:33:36.837Z,995.7
2023-01-09T11:34:52.763Z,995.8
2023-01-09T11:36:09.216Z,995.8
2023-01-09T11:37:25.388Z,995.8
2023-01-09T11:38:41.586Z,995.8
2023-01-09T11:39:57.765Z,995.8
2023-01-09T11:41:13.713Z,995.8
2023-01-09T11:42:29.899Z,995.8
2023-01-09T11:43:46.343Z,995.8
2023-01-09T11:45:01.294Z,995.8
2023-01-09T11:46:17.744Z,995.8
2023-01-09T11:47:33.926Z,995.8
2023-01-09T11:48:49.850Z,995.8
2023-01-09T11:50:06.041Z,995.8
2023-01-09T11:51:22.500Z,995.8
2023-01-09T11:52:38.676Z,995.8
2023-01-09T11:53:54.621Z,995.8
2023-01-09T11:55:10.805Z,995.8
2023-01-09T11:56:27.242Z,995.8
2023-01-09T11:57:43.189Z,995.9
2023-01-09T11:58:59.369Z,995.9
2023-01-09T12:00:15.558Z,996
2023-01-09T12:01:31.028Z,995.9
2023-01-09T12:02:47.219Z,996
2023-01-09T12:04:03.391Z,996
2023-01-09T12:06:35.780Z,996.1
2023-01-09T12:07:51.970Z,996.1
2023-01-09T12:09:08.158Z,996.1
2023-01-09T12:10:24.353Z,996.1
2023-01-09T12:11:40.530Z,996.1
2023-01-09T12:12:56.470Z,996.1
2023-01-09T12:14:12.900Z,996.1
2023-01-09T12:15:29.104Z,996.2
2023-01-09T12:16:45.017Z,996.3
2023-01-09T12:18:00.490Z,996.2
2023-01-09T12:19:16.680Z,996.3
2023-01-09T12:20:32.613Z,996.3
2023-01-09T12:21:49.059Z,996.4
2023-01-09T12:23:04.977Z,996.3
2023-01-09T12:24:21.444Z,996.3
2023-01-09T12:25:37.629Z,996.2
2023-01-09T12:26:53.823Z,996.2
2023-01-09T12:28:09.742Z,996.2
2023-01-09T12:29:26.192Z,996.2
2023-01-09T12:30:42.384Z,996.1
2023-01-09T12:31:58.577Z,996.1
2023-01-09T12:33:14.772Z,996.1
2023-01-09T12:34:29.967Z,996.1
2023-01-09T12:35:45.882Z,996.2
2023-01-09T12:37:02.343Z,996.2
2023-01-09T12:38:18.269Z,996.2
2023-01-09T12:39:34.718Z,996.2
2023-01-09T12:40:50.909Z,996.2
2023-01-09T12:42:07.097Z,996.2
2023-01-09T12:43:23.034Z,996.2
2023-01-09T12:44:39.477Z,996.3
2023-01-09T12:45:55.668Z,996.3
2023-01-09T12:47:11.867Z,996.3
2023-01-09T12:48:28.043Z,996.3
2023-01-09T12:49:44.241Z,996.3
2023-01-09T12:50:59.176Z,996.3
2023-01-09T12:52:15.627Z,996.4
2023-01-09T12:53:31.559Z,996.3
2023-01-09T12:54:48.015Z,996.3
2023-01-09T12:56:04.191Z,996.3
2023-01-09T12:57:20.123Z,996.3
2023-01-09T12:58:36.298Z,996.3
2023-01-09T12:59:52.498Z,996.3
2023-01-09T13:01:08.964Z,996.3
2023-01-09T13:02:25.142Z,996.2
2023-01-09T13:03:41.324Z,996.3
2023-01-09T13:04:57.527Z,996.3
2023-01-09T13:06:13.441Z,996.3
2023-01-09T13:07:28.645Z,996.4
2023-01-09T13:08:45.110Z,996.4
2023-01-09T13:10:01.285Z,996.3
2023-01-09T13:11:17.476Z,996.4
2023-01-09T13:12:33.678Z,996.4
2023-01-09T13:13:49.581Z,996.4
2023-01-09T13:15:06.045Z,996.4
2023-01-09T13:16:22.246Z,996.4
2023-01-09T13:17:38.425Z,996.4
2023-01-09T13:18:54.335Z,996.5
2023-01-09T13:20:10.527Z,996.4
2023-01-09T13:21:26.989Z,996.4
2023-01-09T13:22:42.910Z,996.4
2023-01-09T13:23:58.382Z,996.5
2023-01-09T13:25:14.587Z,996.4
2023-01-09T13:26:30.489Z,996.4
2023-01-09T13:27:46.956Z,996.4
2023-01-09T13:29:02.861Z,996.3
2023-01-09T13:30:19.340Z,996.3
2023-01-09T13:31:35.525Z,996.3
2023-01-09T13:32:51.712Z,996.3
2023-01-09T13:34:07.626Z,996.3
2023-01-09T13:35:24.083Z,996.3
2023-01-09T13:36:40.010Z,996.4
2023-01-09T13:37:56.463Z,996.3
2023-01-09T13:39:12.667Z,996.3
2023-01-09T13:40:27.864Z,996.3
2023-01-09T13:41:44.057Z,996.3
2023-01-09T13:42:59.960Z,996.3
2023-01-09T13:44:16.165Z,996.3
2023-01-09T13:45:32.629Z,996.3
2023-01-09T13:46:48.531Z,996.3
2023-01-09T13:48:04.717Z,996.4
2023-01-09T13:49:21.182Z,996.3
2023-01-09T13:50:37.371Z,996.4
2023-01-09T13:51:53.278Z,996.5
2023-01-09T13:53:09.756Z,996.5
2023-01-09T13:54:25.947Z,996.6
2023-01-09T13:55:42.135Z,996.5
2023-01-09T13:56:57.340Z,996.6
2023-01-09T13:58:13.528Z,996.7
2023-01-09T13:59:29.439Z,996.8
2023-01-09T14:00:45.905Z,996.8
2023-01-09T14:02:02.098Z,996.8
2023-01-09T14:03:18.282Z,996.9
2023-01-09T14:04:34.190Z,996.9
2023-01-09T14:05:50.657Z,996.9
2023-01-09T14:07:06.562Z,997
2023-01-09T14:08:23.040Z,997
2023-01-09T14:09:39.225Z,997
2023-01-09T14:10:55.428Z,997.1
2023-01-09T14:12:11.609Z,997
2023-01-09T14:13:26.815Z,997
2023-01-09T14:14:43.009Z,997
2023-01-09T14:15:59.189Z,997.1
2023-01-09T14:17:15.375Z,997.1
2023-01-09T14:18:31.576Z,997.1
2023-01-09T14:19:47.483Z,997.1
2023-01-09T14:21:03.953Z,997.1
2023-01-09T14:22:20.136Z,997.1
2023-01-09T14:23:36.328Z,997.1
2023-01-09T14:24:52.514Z,997.1
2023-01-09T14:26:08.426Z,997.2
2023-01-09T14:27:24.897Z,997.2
2023-01-09T14:28:41.079Z,997.2
2023-01-09T14:29:55.993Z,997.2
2023-01-09T14:31:12.471Z,997.3
2023-01-09T14:32:28.674Z,997.3
2023-01-09T14:33:44.863Z,997.3
2023-01-09T14:35:00.746Z,997.3
2023-01-09T14:36:17.225Z,997.4
2023-01-09T14:37:33.136Z,997.4
2023-01-09T14:38:49.324Z,997.4
2023-01-09T14:40:05.506Z,997.4
2023-01-09T14:41:22.000Z,997.5
2023-01-09T14:42:38.183Z,997.5
2023-01-09T14:43:54.373Z,997.6
2023-01-09T14:45:10.259Z,997.6
2023-01-09T14:46:25.757Z,997.5
2023-01-09T14:47:41.962Z,997.6
2023-01-09T14:48:58.146Z,997.6
2023-01-09T14:50:14.326Z,997.6
2023-01-09T14:51:30.225Z,997.6
2023-01-09T14:52:46.415Z,997.6
2023-01-09T14:54:02.892Z,997.6
2023-01-09T14:55:18.798Z,997.6
2023-01-09T14:56:35.285Z,997.7
2023-01-09T14:57:51.460Z,997.7
2023-01-09T14:59:07.659Z,997.7
2023-01-09T15:00:23.551Z,997.7
2023-01-09T15:01:40.025Z,997.7
2023-01-09T15:02:55.229Z,997.7
2023-01-09T15:04:11.431Z,997.7
2023-01-09T15:05:27.611Z,997.8
2023-01-09T15:06:43.809Z,997.7
2023-01-09T15:07:59.693Z,997.7
2023-01-09T15:09:16.192Z,997.7
2023-01-09T15:10:31.401Z,997.8
2023-01-09T15:11:47.592Z,997.8
2023-01-09T15:13:03.772Z,997.7
2023-01-09T15:14:19.658Z,997.8
2023-01-09T15:15:35.844Z,997.8
2023-01-09T15:16:52.045Z,997.8
2023-01-09T15:18:08.526Z,997.9
2023-01-09T15:19:24.409Z,997.8
2023-01-09T15:20:40.905Z,997.8
2023-01-09T15:21:57.094Z,997.9
2023-01-09T15:23:12.980Z,997.8
2023-01-09T15:24:29.164Z,997.9
2023-01-09T15:25:45.655Z,997.9
2023-01-09T15:27:00.859Z,997.9
2023-01-09T15:28:16.750Z,998
2023-01-09T15:29:33.254Z,998
2023-01-09T15:30:49.141Z,998
2023-01-09T15:32:05.625Z,998
2023-01-09T15:33:21.824Z,998
2023-01-09T15:34:37.994Z,998
2023-01-09T15:35:53.884Z,998
2023-01-09T15:37:10.386Z,998
2023-01-09T15:38:26.267Z,998
2023-01-09T15:39:42.764Z,998
2023-01-09T15:40:58.947Z,998
2023-01-09T15:42:14.836Z,998
2023-01-09T15:43:30.037Z,998
2023-01-09T15:44:46.221Z,998
2023-01-09T15:46:02.412Z,998
2023-01-09T15:47:18.931Z,998.1
2023-01-09T15:48:35.094Z,998.1
2023-01-09T15:49:51.288Z,998.1
2023-01-09T15:51:07.474Z,998.1
2023-01-09T15:52:23.660Z,998.2
2023-01-09T15:53:39.560Z,998.2
2023-01-09T15:54:55.739Z,998.2
2023-01-09T15:56:12.244Z,998.2
2023-01-09T15:57:28.434Z,998.3
2023-01-09T15:58:44.296Z,998.3
2023-01-09T15:59:59.811Z,998.4
2023-01-09T16:01:15.706Z,998.4
2023-01-09T16:02:31.880Z,998.4
2023-01-09T16:03:48.384Z,998.4
2023-01-09T16:05:04.579Z,998.4
2023-01-09T16:06:20.761Z,998.4
2023-01-09T16:07:36.640Z,998.4
2023-01-09T16:08:52.842Z,998.4
2023-01-09T16:10:09.326Z,998.4
2023-01-09T16:11:25.513Z,998.4
2023-01-09T16:12:41.703Z,998.4
2023-01-09T16:13:57.580Z,998.5
2023-01-09T16:15:13.773Z,998.5
2023-01-09T16:16:28.991Z,998.5
2023-01-09T16:17:45.491Z,998.5
2023-01-09T16:19:01.671Z,998.5
2023-01-09T16:20:17.552Z,998.5
2023-01-09T16:21:34.050Z,998.4
2023-01-09T16:22:50.236Z,998.4
2023-01-09T16:24:06.121Z,998.4
2023-01-09T16:25:22.618Z,998.5
2023-01-09T16:26:38.803Z,998.5
2023-01-09T16:27:54.995Z,998.4
2023-01-09T16:29:10.875Z,998.5
2023-01-09T16:30:27.381Z,998.5